Weather at Edmonton / St. Albert [CLOSED]

Public forecast

Using degrees Celsius for public forecast. Weather courtesy of forecast.io.

Closest aviation weather report (METAR) to Edmonton / St. Albert

Closest report is Edmonton / Villeneuve Airport, 5.9 nm (10.9 km) WSW. Retrieved 2020/09/27 16:00 UTC (40 minutes ago):

CZVL 271600Z AUTO 30020G30KT 9SM OVC080 11/02 A3012 RMK SLP214

Closest aviation forecast (TAF) to Edmonton / St. Albert

Closest forecast is Edmonton / Villeneuve Airport, 5.9 nm (10.9 km) WSW. Retrieved 2020/09/27 12:00 UTC (5 hours ago):

TAF CZVL 271138Z 2712/2724 28006KT P6SM FEW040 SCT080 TEMPO 2712/2718 SCT040 BKN080 BECMG 2715/2717 30012G22KT FM272100 30010KT P6SM FEW060 RMK FCST BASED ON AUTO OBS NXT FCST BY 271800Z